Time;durP1;ratioP1;P1;durP2;ratioP2;P2;SDS_P1;SDS_P2;PMS_P1;PMS_P2;Temp;Humidity;BMP_temperature;BMP_pressure;BME280_temperature;BME280_humidity;BME280_pressure;Samples;Min_cycle;Max_cycle;Signal;HPM_P1;HPM_P2
2022/07/13 00:01:55;;;;;;;9.88;2.67;;;;;;;28.25;27.79;101586.63;5031946;28;20432;-64
2022/07/13 00:04:22;;;;;;;7.60;3.17;;;;;;;28.16;27.56;101579.78;5029786;28;20056;-65
2022/07/13 00:06:50;;;;;;;9.95;2.88;;;;;;;28.13;27.74;101587.09;5026836;28;20057;-64
2022/07/13 00:09:17;;;;;;;8.05;3.15;;;;;;;28.15;28.03;101589.50;5028117;28;20058;-65
2022/07/13 00:11:45;;;;;;;15.20;3.20;;;;;;;28.07;28.05;101588.72;5029334;28;20045;-65
2022/07/13 00:14:12;;;;;;;6.72;2.72;;;;;;;28.17;28.20;101584.25;5035084;28;20056;-63
2022/07/13 00:16:39;;;;;;;7.35;2.63;;;;;;;28.27;27.72;101586.19;5033589;28;20499;-65
2022/07/13 00:19:07;;;;;;;8.63;3.38;;;;;;;28.28;28.10;101582.16;5054859;28;20057;-65
2022/07/13 00:21:34;;;;;;;13.00;3.65;;;;;;;28.28;28.18;101582.16;5029981;28;20400;-65
2022/07/13 00:24:02;;;;;;;8.38;3.05;;;;;;;28.21;28.08;101576.53;5041887;28;20057;-65
2022/07/13 00:26:29;;;;;;;11.05;3.10;;;;;;;28.15;28.18;101579.00;5027139;28;20049;-64
2022/07/13 00:28:57;;;;;;;17.92;3.58;;;;;;;28.10;28.19;101582.25;5035963;28;20076;-65
2022/07/13 00:31:24;;;;;;;10.80;2.75;;;;;;;28.00;28.61;101583.09;5033674;28;20068;-64
2022/07/13 00:33:52;;;;;;;15.82;3.03;;;;;;;27.98;28.53;101584.72;5036759;28;20061;-65
2022/07/13 00:36:19;;;;;;;12.45;2.85;;;;;;;28.00;28.70;101576.63;5047890;28;20554;-64
2022/07/13 00:38:46;;;;;;;8.40;2.92;;;;;;;27.96;28.45;101575.84;5033918;28;20064;-65
2022/07/13 00:41:14;;;;;;;11.02;3.15;;;;;;;27.96;28.46;101582.31;5031415;28;20049;-65
2022/07/13 00:43:41;;;;;;;8.98;2.83;;;;;;;28.01;28.65;101575.41;5044567;28;20069;-65
2022/07/13 00:46:09;;;;;;;10.70;3.25;;;;;;;27.95;28.18;101569.34;5032652;28;20472;-65
2022/07/13 00:48:38;;;;;;;10.82;3.20;;;;;;;27.94;28.61;101566.94;5023369;28;20062;-64
2022/07/13 00:51:06;;;;;;;6.32;2.72;;;;;;;27.58;29.15;101567.03;5048168;28;20064;-64
2022/07/13 00:53:37;;;;;;;8.60;2.80;;;;;;;27.75;28.96;101565.38;5034455;28;20056;-65
2022/07/13 00:56:05;;;;;;;11.10;2.70;;;;;;;27.89;28.48;101561.66;5030552;28;20050;-64
2022/07/13 00:58:33;;;;;;;8.57;2.67;;;;;;;27.90;28.74;101558.41;5029298;28;20517;-65
2022/07/13 01:01:00;;;;;;;8.65;2.80;;;;;;;27.84;28.86;101557.25;5045122;28;20064;-64
2022/07/13 01:03:28;;;;;;;8.40;2.90;;;;;;;27.76;28.85;101555.66;5031429;28;20049;-65
2022/07/13 01:05:56;;;;;;;8.57;2.70;;;;;;;27.77;28.69;101556.47;5028884;28;20650;-64
2022/07/13 01:08:24;;;;;;;11.10;2.88;;;;;;;27.81;28.77;101555.22;5007050;28;20049;-65
2022/07/13 01:10:52;;;;;;;11.20;2.78;;;;;;;27.76;28.77;101546.38;5025918;28;20068;-65
2022/07/13 01:13:20;;;;;;;13.02;3.05;;;;;;;27.82;28.41;101553.19;5046208;28;20057;-65
2022/07/13 01:15:47;;;;;;;8.82;2.80;;;;;;;27.73;28.70;101554.47;5015752;28;20398;-64
2022/07/13 01:18:14;;;;;;;10.32;2.75;;;;;;;27.62;28.53;101550.03;5028070;28;20060;-64
2022/07/13 01:20:42;;;;;;;13.50;2.90;;;;;;;27.63;29.11;101549.63;5050161;28;20054;-65
2022/07/13 01:23:11;;;;;;;8.40;2.40;;;;;;;27.71;28.75;101551.22;5025229;28;20046;-65
2022/07/13 01:25:40;;;;;;;10.88;2.90;;;;;;;27.63;28.92;101554.50;5024171;28;20428;-65
2022/07/13 01:28:07;;;;;;;9.27;3.10;;;;;;;27.69;28.92;101555.66;5021280;28;20064;-66
2022/07/13 01:30:35;;;;;;;11.13;2.80;;;;;;;27.71;28.67;101556.88;5029870;28;20053;-64
2022/07/13 01:33:03;;;;;;;9.50;2.72;;;;;;;27.66;28.80;101557.31;5024402;28;20061;-64
2022/07/13 01:35:30;;;;;;;7.53;2.90;;;;;;;27.68;28.50;101551.25;5030011;28;20041;-67
2022/07/13 01:37:58;;;;;;;7.20;2.70;;;;;;;27.59;28.95;101553.69;5021465;28;20520;-64
2022/07/13 01:40:25;;;;;;;13.38;3.10;;;;;;;27.56;29.61;101552.47;5019014;28;20046;-64
2022/07/13 01:42:55;;;;;;;10.88;3.20;;;;;;;27.41;29.98;101548.06;5030407;28;20439;-65
2022/07/13 01:45:24;;;;;;;8.80;2.90;;;;;;;27.43;30.08;101551.31;5031212;28;20049;-66
2022/07/13 01:47:54;;;;;;;15.65;3.22;;;;;;;27.39;29.82;101544.06;5027534;28;20065;-65
2022/07/13 01:50:23;;;;;;;9.15;3.25;;;;;;;27.32;30.20;101546.91;5037208;28;20054;-65
2022/07/13 01:52:52;;;;;;;10.60;2.60;;;;;;;27.26;30.39;101543.63;5055945;28;20058;-66
2022/07/13 01:55:20;;;;;;;11.50;3.17;;;;;;;27.25;30.63;101542.00;5030030;28;20054;-66
2022/07/13 01:57:47;;;;;;;9.50;2.92;;;;;;;27.17;30.52;101545.25;5016557;28;20061;-65
2022/07/13 02:00:17;;;;;;;9.48;3.20;;;;;;;27.09;30.90;101540.84;5044187;28;20045;-64
2022/07/13 02:02:46;;;;;;;10.88;3.30;;;;;;;27.04;31.23;101542.03;5030984;28;20552;-64
2022/07/13 02:05:17;;;;;;;9.48;2.75;;;;;;;27.04;31.58;101533.53;5029778;28;20413;-65
2022/07/13 02:07:45;;;;;;;9.30;3.15;;;;;;;27.09;31.38;101527.50;5043870;28;20045;-65
2022/07/13 02:10:12;;;;;;;9.15;2.60;;;;;;;27.13;31.37;101533.16;5029478;28;20532;-64
2022/07/13 02:12:41;;;;;;;9.70;2.85;;;;;;;27.18;30.77;101533.53;5033872;28;20054;-65
2022/07/13 02:15:09;;;;;;;8.80;2.95;;;;;;;26.97;30.74;101533.56;5032632;28;20052;-65
2022/07/13 02:17:38;;;;;;;7.50;2.72;;;;;;;27.01;30.75;101525.06;5020058;28;20405;-64
2022/07/13 02:20:08;;;;;;;6.13;2.90;;;;;;;27.10;30.64;101523.44;5035277;28;20084;-66
2022/07/13 02:22:39;;;;;;;;;;;;;;;27.04;31.03;101510.13;5026920;28;20079;-64
2022/07/13 02:25:08;;;;;;;10.82;2.90;;;;;;;27.11;30.72;101518.63;5028981;28;19921;-64
2022/07/13 02:27:35;;;;;;;11.27;3.53;;;;;;;27.07;31.22;101520.63;5059389;28;20062;-65
2022/07/13 02:30:03;;;;;;;8.85;3.22;;;;;;;27.09;30.90;101519.03;5032763;28;20053;-65
2022/07/13 02:32:30;;;;;;;12.30;2.80;;;;;;;27.06;31.11;101516.19;5031633;28;20632;-65
2022/07/13 02:34:58;;;;;;;12.20;2.70;;;;;;;27.08;31.30;101513.75;5037527;28;20065;-64
2022/07/13 02:37:25;;;;;;;12.45;3.03;;;;;;;27.06;31.56;101511.34;5068954;28;20061;-64
2022/07/13 02:39:55;;;;;;;8.18;3.50;;;;;;;27.07;31.38;101512.97;5036483;28;20064;-64
2022/07/13 02:42:23;;;;;;;9.60;3.10;;;;;;;27.03;31.79;101514.16;5031047;28;20049;-65
2022/07/13 02:44:51;;;;;;;14.90;2.97;;;;;;;27.10;31.21;101511.31;5016788;28;20057;-64
2022/07/13 02:47:19;;;;;;;9.32;2.80;;;;;;;27.13;31.59;101511.31;5048325;28;20049;-65
2022/07/13 02:49:46;;;;;;;8.25;3.10;;;;;;;27.15;31.71;101502.41;5047057;28;20061;-65
2022/07/13 02:52:15;;;;;;;7.70;3.00;;;;;;;27.01;32.17;101508.09;5029171;28;20064;-65
2022/07/13 02:54:43;;;;;;;13.35;2.67;;;;;;;27.00;32.01;101507.31;5025189;28;20057;-65
2022/07/13 02:57:11;;;;;;;6.93;2.63;;;;;;;27.03;31.59;101512.16;5022399;28;20050;-66
2022/07/13 02:59:39;;;;;;;8.32;2.80;;;;;;;27.01;31.81;101513.75;5028753;28;20057;-64
2022/07/13 03:02:07;;;;;;;6.13;3.00;;;;;;;26.93;31.42;101509.34;5029777;28;20061;-64
2022/07/13 03:04:35;;;;;;;9.63;2.75;;;;;;;27.05;31.66;101517.41;5030400;28;20060;-64
2022/07/13 03:07:03;;;;;;;10.18;3.38;;;;;;;27.14;31.61;101515.78;5035803;28;20045;-65
2022/07/13 03:09:32;;;;;;;7.47;3.00;;;;;;;27.14;31.23;101507.28;5029812;28;20053;-64
2022/07/13 03:11:59;;;;;;;9.10;2.70;;;;;;;27.01;31.80;101513.75;5035387;28;20064;-64
2022/07/13 03:14:26;;;;;;;5.78;2.60;;;;;;;27.10;31.66;101509.31;5031751;28;20057;-64
2022/07/13 03:16:53;;;;;;;9.15;2.75;;;;;;;26.92;31.45;101504.91;5032118;28;20392;-65
2022/07/13 03:19:22;;;;;;;8.55;2.55;;;;;;;27.03;31.13;101514.97;5032223;28;20069;-64
2022/07/13 03:21:49;;;;;;;7.22;2.95;;;;;;;27.00;31.39;101512.97;5036199;28;20060;-64
2022/07/13 03:24:16;;;;;;;10.68;2.92;;;;;;;26.95;31.34;101515.41;5047675;28;20062;-64
2022/07/13 03:26:44;;;;;;;7.72;2.97;;;;;;;26.96;32.06;101511.34;5021616;28;20056;-64
2022/07/13 03:29:12;;;;;;;12.95;2.72;;;;;;;26.88;32.57;101513.38;5030900;28;20425;-64
2022/07/13 03:31:40;;;;;;;9.10;3.20;;;;;;;26.92;32.37;101510.56;5038419;28;20054;-65
2022/07/13 03:34:07;;;;;;;6.93;2.58;;;;;;;26.99;32.30;101507.72;5030440;28;20049;-65
2022/07/13 03:36:35;;;;;;;9.48;3.22;;;;;;;26.91;32.54;101509.75;5028733;28;20049;-65
2022/07/13 03:39:04;;;;;;;10.47;3.20;;;;;;;26.93;32.33;101515.81;5063572;28;20480;-65
2022/07/13 03:41:32;;;;;;;8.35;2.58;;;;;;;26.90;32.76;101510.97;5026033;28;20054;-64
2022/07/13 03:44:02;;;;;;;5.38;2.58;;;;;;;26.93;32.31;101518.63;5019445;28;20057;-65
2022/07/13 03:46:29;;;;;;;11.75;2.60;;;;;;;26.84;32.21;101509.75;5029074;28;20057;-64
2022/07/13 03:48:57;;;;;;;11.23;2.80;;;;;;;26.82;32.71;101511.34;5031327;28;20045;-64
2022/07/13 03:51:25;;;;;;;9.30;3.03;;;;;;;26.84;32.70;101517.41;5044858;28;20050;-64
2022/07/13 03:53:52;;;;;;;10.20;3.05;;;;;;;26.84;32.57;101514.59;5036253;28;20053;-64
2022/07/13 03:56:20;;;;;;;8.98;2.80;;;;;;;26.90;32.57;101516.63;5016426;28;20754;-64
2022/07/13 03:58:47;;;;;;;9.35;2.92;;;;;;;26.92;32.73;101517.00;5034523;28;20054;-64
2022/07/13 04:01:19;;;;;;;11.45;2.72;;;;;;;26.95;32.65;101521.06;5022803;28;20048;-64
2022/07/13 04:03:47;;;;;;;9.27;2.65;;;;;;;26.72;32.93;101518.63;5019628;28;20493;-65
2022/07/13 04:06:16;;;;;;;8.95;2.58;;;;;;;26.76;32.93;101513.81;5034687;28;20125;-65
2022/07/13 04:08:44;;;;;;;7.03;2.75;;;;;;;26.87;32.85;101525.91;5016335;28;20061;-65
2022/07/13 04:11:11;;;;;;;14.98;2.67;;;;;;;26.85;32.81;101522.66;5031692;28;20057;-65
2022/07/13 04:13:38;;;;;;;8.43;3.03;;;;;;;26.88;32.52;101516.22;5043123;28;20058;-65
2022/07/13 04:16:06;;;;;;;9.80;2.67;;;;;;;26.81;32.83;101521.06;5054336;28;20064;-65
2022/07/13 04:18:36;;;;;;;;;;;;;;;26.79;32.78;101515.81;5018061;28;20081;-65
2022/07/13 04:21:04;;;;;;;18.80;2.85;;;;;;;26.78;32.67;101525.50;5053873;28;19921;-65
2022/07/13 04:23:31;;;;;;;21.30;3.33;;;;;;;26.89;32.42;101515.00;5017060;28;20057;-65
2022/07/13 04:25:59;;;;;;;13.60;2.72;;;;;;;26.93;32.41;101515.00;5035576;28;20060;-65
2022/07/13 04:28:26;;;;;;;16.48;3.03;;;;;;;26.92;32.54;101516.22;5031173;28;20057;-65
2022/07/13 04:30:54;;;;;;;8.00;3.03;;;;;;;26.97;32.16;101510.16;5020859;28;20050;-64
2022/07/13 04:33:26;;;;;;;14.13;3.30;;;;;;;26.87;32.75;101508.16;5045429;28;20065;-65
2022/07/13 04:35:54;;;;;;;15.60;3.10;;;;;;;26.82;32.39;101508.53;5031069;28;20061;-65
2022/07/13 04:38:21;;;;;;;9.15;2.88;;;;;;;26.83;32.73;101508.16;5029331;28;20054;-64
2022/07/13 04:40:49;;;;;;;11.30;3.10;;;;;;;26.85;32.33;101508.53;5046443;28;20492;-65
2022/07/13 04:43:17;;;;;;;8.93;2.83;;;;;;;26.92;32.54;101510.56;5036599;28;20064;-65
2022/07/13 04:45:45;;;;;;;8.25;3.00;;;;;;;26.84;32.71;101504.09;5029884;28;20058;-65
2022/07/13 04:48:14;;;;;;;8.37;2.90;;;;;;;26.71;32.61;101504.91;5031808;28;20464;-66
2022/07/13 04:50:42;;;;;;;14.15;3.53;;;;;;;26.85;32.88;101510.56;5032117;28;20431;-66
2022/07/13 04:53:10;;;;;;;11.40;3.10;;;;;;;26.86;32.99;101498.03;5040810;28;20050;-65
2022/07/13 04:55:38;;;;;;;14.63;3.35;;;;;;;26.80;33.31;101505.31;5026792;28;20665;-65
2022/07/13 04:58:07;;;;;;;10.05;3.08;;;;;;;26.87;33.26;101508.16;5033816;28;20042;-66
2022/07/13 05:00:35;;;;;;;11.32;2.88;;;;;;;26.84;33.30;101514.59;5018842;28;20050;-65
2022/07/13 05:03:22;;;;;;;12.25;3.00;;;;;;;26.72;33.32;101515.81;5025084;28;20053;-66
2022/07/13 05:05:50;;;;;;;10.25;2.45;;;;;;;26.81;33.40;101512.56;5028892;28;20050;-65
2022/07/13 05:08:17;;;;;;;10.52;2.67;;;;;;;26.90;33.50;101512.97;5031331;28;20041;-64
2022/07/13 05:10:46;;;;;;;8.98;3.08;;;;;;;26.70;33.17;101514.59;5050103;28;20408;-65
2022/07/13 05:13:14;;;;;;;9.40;3.05;;;;;;;26.58;33.41;101516.59;5024400;28;20045;-65
2022/07/13 05:15:51;;;;;;;10.27;2.90;;;;;;;26.57;34.15;101512.13;5031604;28;20064;-65
2022/07/13 05:18:20;;;;;;;8.15;2.97;;;;;;;26.32;34.15;101516.16;5032159;28;20060;-65
2022/07/13 05:20:47;;;;;;;8.38;2.75;;;;;;;26.30;34.34;101518.56;5015188;28;20054;-65
2022/07/13 05:23:15;;;;;;;14.07;3.65;;;;;;;26.63;33.69;101516.19;5032600;28;20053;-66
2022/07/13 05:25:42;;;;;;;11.00;3.47;;;;;;;26.47;33.83;101512.13;5032123;28;20057;-66
2022/07/13 05:28:10;;;;;;;12.98;3.25;;;;;;;26.31;34.19;101517.38;5049135;28;20056;-65
2022/07/13 05:30:37;;;;;;;14.75;2.90;;;;;;;26.45;33.93;101517.38;5050029;28;20049;-65
2022/07/13 05:33:05;;;;;;;9.65;3.13;;;;;;;26.59;34.19;101525.84;5021698;28;20072;-65
2022/07/13 05:35:32;;;;;;;9.63;3.30;;;;;;;26.57;34.59;101525.47;5016647;28;20041;-65
2022/07/13 05:38:00;;;;;;;9.68;3.42;;;;;;;26.59;34.10;101525.84;5019530;28;20050;-66
2022/07/13 05:40:27;;;;;;;11.38;3.38;;;;;;;26.58;34.47;101522.25;5045967;28;20053;-65
2022/07/13 05:42:55;;;;;;;18.65;3.63;;;;;;;26.49;34.20;101527.47;5042129;28;20464;-65
2022/07/13 05:45:25;;;;;;;8.65;3.22;;;;;;;26.64;34.15;101523.44;5026468;28;20060;-66
2022/07/13 05:47:53;;;;;;;11.23;3.42;;;;;;;26.43;34.31;101523.41;5026788;28;20050;-65
2022/07/13 05:50:21;;;;;;;13.02;3.50;;;;;;;26.32;34.33;101525.44;5041681;28;20915;-64
2022/07/13 05:52:49;;;;;;;11.65;3.85;;;;;;;26.53;34.10;101527.47;5035699;28;20053;-65
2022/07/13 05:55:19;;;;;;;11.57;3.30;;;;;;;26.56;34.21;101521.84;5027477;28;20503;-66
2022/07/13 05:57:46;;;;;;;13.55;3.85;;;;;;;26.48;33.98;101527.88;5013801;28;20076;-64
2022/07/13 06:00:14;;;;;;;14.68;3.17;;;;;;;26.77;33.52;101523.06;5029441;28;20054;-66
2022/07/13 06:02:42;;;;;;;15.63;3.40;;;;;;;26.67;34.06;101531.13;5036666;28;20061;-66
2022/07/13 06:05:10;;;;;;;13.13;3.50;;;;;;;26.91;33.58;101534.38;5025449;28;20413;-66
2022/07/13 06:07:37;;;;;;;13.75;3.25;;;;;;;26.79;33.44;101531.97;5036590;28;20058;-65
2022/07/13 06:10:05;;;;;;;15.20;3.60;;;;;;;26.85;33.48;101531.13;5037943;28;20492;-65
2022/07/13 06:12:33;;;;;;;19.20;3.20;;;;;;;26.77;34.06;101540.84;5041187;28;20446;-65
2022/07/13 06:15:00;;;;;;;13.50;3.33;;;;;;;26.77;33.30;101535.19;5034728;28;20041;-64
2022/07/13 06:17:27;;;;;;;15.73;3.63;;;;;;;26.80;33.80;101536.41;5032779;28;20060;-64
2022/07/13 06:19:55;;;;;;;14.73;3.28;;;;;;;26.75;34.24;101539.63;5035815;28;20060;-64
2022/07/13 06:22:22;;;;;;;17.60;3.88;;;;;;;26.98;33.39;101540.03;5066065;28;20527;-64
2022/07/13 06:24:50;;;;;;;14.82;3.60;;;;;;;26.88;33.96;101536.00;5033479;28;20420;-62
2022/07/13 06:27:17;;;;;;;33.40;3.53;;;;;;;27.17;33.86;101542.44;5050606;28;20056;-65
2022/07/13 06:29:44;;;;;;;14.57;3.30;;;;;;;27.30;33.93;101538.00;5031848;28;20046;-66
2022/07/13 06:32:12;;;;;;;21.02;3.03;;;;;;;27.55;34.15;101538.72;5032104;28;20068;-65
2022/07/13 06:34:39;;;;;;;16.80;3.40;;;;;;;27.82;33.97;101531.38;5023328;28;20057;-67
2022/07/13 06:37:07;;;;;;;17.00;3.42;;;;;;;27.98;33.10;101533.75;5035290;28;20080;-67
2022/07/13 06:39:54;;;;;;;16.23;2.75;;;;;;;27.88;32.07;101537.41;5032443;28;20049;-65
2022/07/13 06:42:21;;;;;;;14.60;3.33;;;;;;;27.80;32.35;101539.47;5041027;28;20053;-66
2022/07/13 06:44:49;;;;;;;13.30;3.05;;;;;;;27.74;32.67;101532.59;5037474;28;20053;-66
2022/07/13 06:47:16;;;;;;;11.50;3.13;;;;;;;28.02;32.36;101537.38;5026056;28;20056;-65
2022/07/13 06:49:45;;;;;;;22.13;3.03;;;;;;;28.09;31.99;101532.47;5040791;28;20667;-65
2022/07/13 06:52:13;;;;;;;22.55;8.60;;;;;;;28.07;31.79;101532.06;5036964;28;20053;-64
2022/07/13 06:54:40;;;;;;;20.52;3.08;;;;;;;27.77;32.60;101529.75;5032438;28;20049;-65
2022/07/13 06:57:07;;;;;;;12.80;3.95;;;;;;;27.81;33.67;101535.41;5034700;28;20050;-65
2022/07/13 06:59:34;;;;;;;17.92;4.03;;;;;;;28.08;32.45;101535.72;5037893;28;20046;-66
2022/07/13 07:02:02;;;;;;;23.48;3.63;;;;;;;28.24;31.96;101534.00;5040852;28;20057;-66
2022/07/13 07:04:29;;;;;;;19.30;3.72;;;;;;;28.16;31.84;101540.91;5033273;28;20049;-63
2022/07/13 07:06:57;;;;;;;22.13;7.50;;;;;;;28.12;32.99;101547.84;5027421;28;20448;-63
2022/07/13 07:09:24;;;;;;;22.67;4.40;;;;;;;28.49;31.65;101543.13;5037012;28;20053;-62
2022/07/13 07:11:51;;;;;;;25.95;3.65;;;;;;;28.44;32.01;101534.25;5035904;28;20059;-63
2022/07/13 07:14:19;;;;;;;16.38;3.30;;;;;;;28.22;32.14;101542.13;5030489;28;20058;-65
2022/07/13 07:16:46;;;;;;;14.13;2.83;;;;;;;28.75;30.45;101534.06;5036327;28;20057;-65
2022/07/13 07:19:14;;;;;;;19.52;3.17;;;;;;;29.08;30.33;101534.59;5025962;28;20056;-66
2022/07/13 07:21:52;;;;;;;16.90;3.28;;;;;;;29.13;29.66;101534.97;5035965;28;20045;-65
2022/07/13 07:24:20;;;;;;;23.20;3.03;;;;;;;29.41;28.71;101533.88;5033302;28;20048;-67
2022/07/13 07:26:51;;;;;;;17.58;2.88;;;;;;;28.37;30.62;101537.97;5041533;28;20075;-65
2022/07/13 07:29:18;;;;;;;16.40;3.58;;;;;;;28.69;29.92;101549.09;5026242;28;20057;-66
2022/07/13 07:31:46;;;;;;;15.80;3.80;;;;;;;29.06;29.73;101542.72;5029841;28;20060;-66
2022/07/13 07:34:13;;;;;;;16.85;3.88;;;;;;;29.23;29.11;101538.91;5044121;28;20060;-66
2022/07/13 07:36:41;;;;;;;16.60;3.10;;;;;;;29.31;29.33;101537.63;5025505;28;20651;-67
2022/07/13 07:39:08;;;;;;;14.07;3.20;;;;;;;29.15;29.84;101540.22;5025326;28;20049;-65
2022/07/13 07:41:35;;;;;;;21.35;5.82;;;;;;;29.26;29.51;101543.75;5034353;28;20075;-67
2022/07/13 07:44:03;;;;;;;16.33;3.88;;;;;;;29.44;28.69;101541.53;5035792;28;20053;-66
2022/07/13 07:46:30;;;;;;;18.08;3.30;;;;;;;29.69;27.90;101533.59;5030241;28;20053;-66
2022/07/13 07:48:58;;;;;;;16.40;2.80;;;;;;;29.68;28.31;101535.59;5019840;28;20611;-66
2022/07/13 07:51:26;;;;;;;11.77;3.30;;;;;;;30.13;27.50;101526.91;5022270;28;20050;-67
2022/07/13 07:54:13;;;;;;;12.48;2.80;;;;;;;29.63;28.04;101538.06;5037179;28;20044;-65
2022/07/13 07:56:41;;;;;;;19.85;2.72;;;;;;;28.93;28.88;101533.09;5040435;28;20381;-65
2022/07/13 07:59:08;;;;;;;11.77;3.03;;;;;;;28.62;29.66;101534.97;5042724;28;20037;-65
2022/07/13 08:01:36;;;;;;;13.50;2.50;;;;;;;28.22;30.23;101535.63;5039360;28;20152;-64
2022/07/13 08:04:03;;;;;;;14.35;2.40;;;;;;;28.41;30.20;101535.91;5029389;28;20060;-65
2022/07/13 08:06:31;;;;;;;21.20;2.75;;;;;;;28.46;30.32;101535.47;5030634;28;20053;-65
2022/07/13 08:08:58;;;;;;;11.65;2.85;;;;;;;28.82;29.80;101538.84;5041749;28;20049;-64
2022/07/13 08:11:26;;;;;;;15.65;2.47;;;;;;;28.49;29.81;101531.81;5034458;28;20053;-64
2022/07/13 08:13:53;;;;;;;13.27;2.53;;;;;;;28.43;30.21;101539.16;5037761;28;20409;-66
2022/07/13 08:16:21;;;;;;;16.20;2.22;;;;;;;28.40;30.21;101537.13;5034136;28;20045;-65
2022/07/13 08:18:49;;;;;;;18.20;2.72;;;;;;;28.85;29.57;101538.03;5026904;28;20053;-67
2022/07/13 08:21:36;;;;;;;11.68;2.80;;;;;;;28.77;29.68;101533.63;5023049;28;20077;-65
2022/07/13 08:24:04;;;;;;;9.20;2.38;;;;;;;28.83;29.49;101529.13;5037381;28;20049;-66
2022/07/13 08:26:32;;;;;;;11.52;2.10;;;;;;;28.54;30.21;101536.28;5018618;28;20061;-65
2022/07/13 08:29:00;;;;;;;14.98;2.60;;;;;;;28.70;30.17;101526.00;5032182;28;20050;-67
2022/07/13 08:31:27;;;;;;;10.57;2.42;;;;;;;29.11;29.42;101528.09;5032227;28;20062;-67
2022/07/13 08:39:35;;;;;;;7.57;2.35;;;;;;;28.73;29.78;101527.22;5026560;28;20500;-65
2022/07/13 08:42:06;;;;;;;;;;;;;;;28.41;30.29;101533.09;5033347;28;20405;-64
2022/07/13 08:44:36;;;;;;;16.35;2.55;;;;;;;28.75;30.32;101531.22;5036452;28;20372;-65
2022/07/13 08:47:05;;;;;;;12.73;2.47;;;;;;;28.93;30.02;101530.25;5031942;28;20069;-65
2022/07/13 08:49:33;;;;;;;10.73;2.55;;;;;;;28.93;29.93;101527.41;5027793;28;20049;-64
2022/07/13 08:52:04;;;;;;;9.30;3.00;;;;;;;29.03;29.79;101524.47;5038118;28;20410;-64
2022/07/13 08:54:32;;;;;;;13.85;3.55;;;;;;;29.36;29.54;101526.59;5040295;28;20045;-64
2022/07/13 08:57:01;;;;;;;15.27;2.50;;;;;;;29.55;29.28;101514.63;5035539;28;20049;-65
2022/07/13 08:59:28;;;;;;;10.40;2.28;;;;;;;29.20;29.85;101525.59;5047247;28;20053;-65
2022/07/13 09:01:59;;;;;;;13.82;2.00;;;;;;;29.28;29.94;101533.59;5040671;28;20042;-64
2022/07/13 09:04:30;;;;;;;9.25;2.33;;;;;;;29.27;30.40;101525.50;5018647;28;20056;-65
2022/07/13 09:06:58;;;;;;;11.43;2.40;;;;;;;29.37;30.23;101518.91;5025667;28;20057;-65
2022/07/13 09:09:28;;;;;;;14.45;2.50;;;;;;;29.74;29.88;101521.75;5035939;28;20049;-64
2022/07/13 09:12:20;;;;;;;7.72;2.10;;;;;;;30.21;29.38;101511.34;5036094;28;20044;-63
2022/07/13 09:14:57;;;;;;;12.10;2.65;;;;;;;30.30;28.61;101505.97;5064857;28;20053;-65
2022/07/13 09:17:30;;;;;;;14.02;3.03;;;;;;;30.26;28.88;101510.91;5045990;28;20046;-66
2022/07/13 09:20:01;;;;;;;14.40;2.90;;;;;;;30.46;28.31;101514.66;5046077;28;20055;-65
2022/07/13 09:22:28;;;;;;;17.30;2.40;;;;;;;30.47;28.66;101507.72;5020478;28;20531;-64
2022/07/13 09:24:56;;;;;;;10.45;2.58;;;;;;;30.69;28.52;101506.13;5041779;28;20042;-65
2022/07/13 09:27:23;;;;;;;10.32;2.55;;;;;;;30.32;27.67;101509.19;5029986;28;20042;-65
2022/07/13 09:29:51;;;;;;;9.73;2.40;;;;;;;30.33;27.78;101500.22;5033710;28;20041;-65
2022/07/13 09:32:18;;;;;;;11.38;2.20;;;;;;;30.68;27.24;101499.66;5031584;28;20054;-68
2022/07/13 09:34:54;;;;;;;11.25;2.20;;;;;;;31.05;26.69;101494.97;5043974;28;20189;-68
2022/07/13 09:37:24;;;;;;;8.73;1.73;;;;;;;30.78;26.85;101497.88;5035628;28;20052;-68
2022/07/13 09:39:58;;;;;;;8.88;2.35;;;;;;;29.95;27.62;101512.13;5035919;28;20392;-64
2022/07/13 09:42:30;;;;;;;10.75;2.13;;;;;;;30.14;27.93;101508.63;5056942;28;20060;-63
2022/07/13 09:47:53;;;;;;;9.40;2.30;;;;;;;30.53;26.18;101503.19;5033518;28;20546;-66
2022/07/13 09:50:26;;;;;;;7.50;2.00;;;;;;;30.93;25.50;101502.91;5027407;28;20037;-67
2022/07/13 09:52:54;;;;;;;5.90;1.70;;;;;;;30.54;26.09;101501.94;5028093;28;20523;-67
2022/07/13 09:55:24;;;;;;;9.15;1.80;;;;;;;30.77;25.60;101499.91;5035643;28;20053;-68
2022/07/13 09:57:56;;;;;;;6.00;1.77;;;;;;;30.70;25.20;101499.22;5038111;28;20535;-67
2022/07/13 10:00:31;;;;;;;11.00;1.70;;;;;;;30.50;25.97;101504.03;5025650;28;20045;-67
2022/07/13 10:03:01;;;;;;;10.63;1.90;;;;;;;30.76;25.50;101500.31;5037998;28;20419;-67
2022/07/13 10:05:29;;;;;;;10.15;2.17;;;;;;;30.83;25.60;101500.25;5036139;28;20053;-67
2022/07/13 10:07:57;;;;;;;6.55;1.65;;;;;;;30.93;25.71;101494.34;5033653;28;20045;-67
2022/07/13 10:10:26;;;;;;;7.95;2.17;;;;;;;31.11;25.25;101498.91;5042043;28;20041;-67
2022/07/13 10:12:55;;;;;;;8.55;2.00;;;;;;;30.71;25.43;101504.47;5015728;28;20559;-67
2022/07/13 10:15:25;;;;;;;4.60;1.50;;;;;;;30.50;25.09;101499.16;5033475;28;20073;-67
2022/07/13 10:17:53;;;;;;;4.20;1.60;;;;;;;30.66;25.01;101495.63;5034682;28;20528;-67
2022/07/13 10:20:21;;;;;;;7.40;1.75;;;;;;;30.78;24.43;101501.53;5029404;28;20046;-68
2022/07/13 10:22:56;;;;;;;5.55;1.40;;;;;;;31.10;24.60;101500.16;5029306;28;20053;-64
2022/07/13 10:25:43;;;;;;;4.82;1.95;;;;;;;31.19;23.96;101497.56;5016062;28;20057;-64
2022/07/13 10:28:14;;;;;;;3.67;1.80;;;;;;;31.33;23.97;101495.22;5050168;28;20057;-64
2022/07/13 10:30:44;;;;;;;6.88;1.77;;;;;;;31.36;24.41;101494.41;5040532;28;20424;-64
2022/07/13 10:33:24;;;;;;;10.55;1.90;;;;;;;30.81;24.81;101500.69;5077996;28;20057;-63
2022/07/13 10:35:52;;;;;;;;;;;;;;;30.64;25.01;101486.72;5035590;28;20037;-68
2022/07/13 10:38:28;;;;;;;6.43;1.60;;;;;;;31.24;24.54;101488.50;5030764;28;19921;-64
2022/07/13 10:41:19;;;;;;;5.30;1.70;;;;;;;31.57;24.25;101481.78;5036625;28;20048;-67
2022/07/13 10:44:03;;;;;;;6.50;1.83;;;;;;;31.58;23.86;101477.66;5027411;28;20045;-64
2022/07/13 10:46:49;;;;;;;5.13;1.80;;;;;;;31.65;24.16;101483.22;5027530;28;20064;-67
2022/07/13 10:49:33;;;;;;;5.95;1.98;;;;;;;31.79;24.18;101486.56;5032504;28;20053;-68
2022/07/13 10:52:19;;;;;;;7.25;2.63;;;;;;;31.39;24.46;101472.78;5031554;28;20085;-66
2022/07/13 10:55:13;;;;;;;7.07;2.40;;;;;;;31.82;24.36;101479.16;5033081;28;20060;-66
2022/07/13 10:57:44;;;;;;;6.40;2.10;;;;;;;31.90;24.22;101484.31;5028058;28;20053;-65
2022/07/13 11:00:22;;;;;;;2.35;1.40;;;;;;;31.81;24.42;101481.22;5033557;28;20404;-66
2022/07/13 11:03:04;;;;;;;4.68;1.60;;;;;;;32.01;24.30;101475.53;5042401;28;20061;-61
2022/07/13 11:05:35;;;;;;;5.28;1.52;;;;;;;31.96;24.33;101478.88;5020088;28;20060;-61
2022/07/13 11:08:13;;;;;;;7.68;1.70;;;;;;;31.77;24.58;101474.00;5049896;28;20053;-62
2022/07/13 11:10:41;;;;;;;7.65;1.77;;;;;;;31.88;23.93;101480.31;5052250;28;20049;-61
2022/07/13 11:13:10;;;;;;;6.90;2.10;;;;;;;32.09;24.16;101479.00;5031881;28;20051;-66
2022/07/13 11:15:53;;;;;;;6.22;1.80;;;;;;;31.69;24.32;101484.75;5040849;28;20059;-63
2022/07/13 11:18:21;;;;;;;7.50;1.73;;;;;;;31.77;24.55;101482.53;5017418;28;20519;-62
2022/07/13 11:21:14;;;;;;;4.13;1.40;;;;;;;31.92;24.55;101472.47;5045287;28;20045;-63
2022/07/13 11:26:46;;;;;;;7.68;1.88;;;;;;;32.58;23.78;101467.25;5022952;28;20064;-63
2022/07/13 11:29:25;;;;;;;6.75;1.95;;;;;;;32.69;23.52;101470.59;5035071;28;20054;-67
2022/07/13 11:32:00;;;;;;;6.50;1.73;;;;;;;32.66;23.94;101470.69;5039561;28;20491;-67
2022/07/13 11:34:28;;;;;;;6.47;1.83;;;;;;;32.73;23.37;101470.50;5039410;28;20049;-67
2022/07/13 11:36:58;;;;;;;5.28;1.60;;;;;;;32.64;24.06;101459.72;5037643;28;20476;-66
2022/07/13 11:39:33;;;;;;;9.15;1.50;;;;;;;32.83;23.91;101449.47;5036351;28;20051;-67
2022/07/13 11:42:02;;;;;;;7.13;1.33;;;;;;;32.91;23.86;101465.16;5033591;28;20515;-65
2022/07/13 11:44:30;;;;;;;4.20;1.40;;;;;;;32.23;24.72;101453.00;5042701;28;20053;-66